createdAt,value
2023-01-05T00:00:01.462Z,13.18
2023-01-05T00:05:03.221Z,15.07
2023-01-05T00:10:25.320Z,23.00
2023-01-05T00:15:56.444Z,11.95
2023-01-05T00:21:16.959Z,16.13
2023-01-05T00:26:18.627Z,14.82
2023-01-05T00:31:20.398Z,14.60
2023-01-05T00:36:22.083Z,14.35
2023-01-05T00:41:23.735Z,11.63
2023-01-05T00:46:25.444Z,15.63
2023-01-05T00:51:27.075Z,16.58
2023-01-05T00:56:28.719Z,16.40
2023-01-05T01:01:30.498Z,13.32
2023-01-05T01:06:32.298Z,14.35
2023-01-05T01:11:34.350Z,13.48
2023-01-05T01:16:36.232Z,17.23
2023-01-05T01:21:37.886Z,14.10
2023-01-05T01:26:39.535Z,15.23
2023-01-05T01:31:41.254Z,14.02
2023-01-05T01:36:43.438Z,16.85
2023-01-05T01:41:45.108Z,15.77
2023-01-05T01:46:46.758Z,19.17
2023-01-05T01:51:48.783Z,14.75
2023-01-05T01:56:54.861Z,21.25
2023-01-05T02:01:59.781Z,16.63
2023-01-05T02:07:02.983Z,22.20
2023-01-05T02:12:22.533Z,18.17
2023-01-05T02:17:42.833Z,17.25
2023-01-05T02:23:14.918Z,18.58
2023-01-05T02:28:43.773Z,13.18
2023-01-05T02:34:13.495Z,19.90
2023-01-05T02:39:25.577Z,13.93
2023-01-05T02:44:32.731Z,19.05
2023-01-05T02:49:40.707Z,16.35
2023-01-05T02:54:47.882Z,11.55
2023-01-05T02:59:54.229Z,15.98
2023-01-05T03:05:05.149Z,12.77
2023-01-05T03:10:26.279Z,13.70
2023-01-05T03:15:31.791Z,16.70
2023-01-05T03:20:34.689Z,13.75
2023-01-05T03:25:57.521Z,17.27
2023-01-05T03:31:25.586Z,17.70
2023-01-05T03:36:29.640Z,12.38
2023-01-05T03:41:32.146Z,15.15
2023-01-05T03:46:34.306Z,17.45
2023-01-05T03:51:41.472Z,13.50
2023-01-05T03:56:43.990Z,13.02
2023-01-05T04:01:45.860Z,16.50
2023-01-05T04:06:47.613Z,16.20
2023-01-05T04:11:49.301Z,14.73
2023-01-05T04:16:50.942Z,20.55
2023-01-05T04:21:52.541Z,27.33
2023-01-05T04:26:54.233Z,19.40
2023-01-05T04:31:55.916Z,12.77
2023-01-05T04:36:57.587Z,16.17
2023-01-05T04:41:59.222Z,15.75
2023-01-05T04:47:00.839Z,20.55
2023-01-05T04:52:02.555Z,14.27
2023-01-05T04:57:04.305Z,16.88
2023-01-05T05:02:06.068Z,21.77
2023-01-05T05:07:07.824Z,19.27
2023-01-05T05:12:09.615Z,19.17
2023-01-05T05:17:11.250Z,21.17
2023-01-05T05:22:13.013Z,22.73
2023-01-05T05:27:14.657Z,22.90
2023-01-05T05:32:16.354Z,25.45
2023-01-05T05:37:18.017Z,19.92
2023-01-05T05:42:19.657Z,13.90
2023-01-05T05:47:21.289Z,19.98
2023-01-05T05:52:23.003Z,21.55
2023-01-05T05:57:24.630Z,17.30
2023-01-05T06:02:26.353Z,17.52
2023-01-05T06:07:28.030Z,18.95
2023-01-05T06:12:29.799Z,22.83
2023-01-05T06:17:31.553Z,20.90
2023-01-05T06:22:33.192Z,18.92
2023-01-05T06:27:35.006Z,15.35
2023-01-05T06:32:36.732Z,21.13
2023-01-05T06:37:38.400Z,17.15
2023-01-05T06:42:41.339Z,24.83
2023-01-05T06:47:43.962Z,26.67
2023-01-05T06:52:45.654Z,22.23
2023-01-05T06:57:47.454Z,26.60
2023-01-05T07:02:49.138Z,18.90
2023-01-05T07:07:51.064Z,25.00
2023-01-05T07:12:52.730Z,18.08
2023-01-05T07:17:54.496Z,23.27
2023-01-05T07:22:56.200Z,22.27
2023-01-05T07:27:58.289Z,18.13
2023-01-05T07:33:00.754Z,22.52
2023-01-05T07:38:02.449Z,23.88
2023-01-05T07:43:04.767Z,22.38
2023-01-05T07:48:06.633Z,26.88
2023-01-05T07:53:08.358Z,22.55
2023-01-05T07:58:10.080Z,21.67
2023-01-05T08:03:11.843Z,23.25
2023-01-05T08:08:19.083Z,17.23
2023-01-05T08:13:42.389Z,24.17
2023-01-05T08:18:44.106Z,28.40
2023-01-05T08:23:45.918Z,26.90
2023-01-05T08:28:47.744Z,34.22
2023-01-05T08:33:49.560Z,23.27
2023-01-05T08:38:55.113Z,24.17
2023-01-05T08:43:59.146Z,21.48
2023-01-05T08:49:02.900Z,24.00
2023-01-05T08:54:04.740Z,26.35
2023-01-05T08:59:06.776Z,22.67
2023-01-05T09:04:08.739Z,23.13
2023-01-05T09:09:10.487Z,24.67
2023-01-05T09:14:14.619Z,24.20
2023-01-05T09:19:16.398Z,38.38
2023-01-05T09:24:18.402Z,29.15
2023-01-05T09:29:20.120Z,26.55
2023-01-05T09:34:21.751Z,20.05
2023-01-05T09:39:23.489Z,32.65
2023-01-05T09:44:27.938Z,26.45
2023-01-05T09:49:31.021Z,30.02
2023-01-05T09:54:34.616Z,26.27
2023-01-05T09:59:43.616Z,30.63
2023-01-05T10:04:47.294Z,25.88
2023-01-05T10:09:49.571Z,29.25
2023-01-05T10:15:01.877Z,27.95
2023-01-05T10:20:06.807Z,29.52
2023-01-05T10:25:25.341Z,33.10
2023-01-05T10:30:45.975Z,22.63
2023-01-05T10:36:48.895Z,27.75
2023-01-05T10:42:00.272Z,24.88
2023-01-05T10:47:02.373Z,26.40
2023-01-05T10:52:06.314Z,17.63
2023-01-05T10:57:35.803Z,22.38
2023-01-05T11:02:57.873Z,19.55
2023-01-05T11:08:03.006Z,25.00
2023-01-05T11:13:22.601Z,26.40
2023-01-05T11:18:48.377Z,21.40
2023-01-05T11:23:54.674Z,18.38
2023-01-05T11:29:08.216Z,22.60
2023-01-05T11:34:34.429Z,25.65
2023-01-05T11:39:36.167Z,20.50
2023-01-05T11:44:39.353Z,22.58
2023-01-05T11:49:41.113Z,17.08
2023-01-05T11:54:44.435Z,21.55
2023-01-05T11:59:47.003Z,18.90
2023-01-05T12:05:11.044Z,23.73
2023-01-05T12:10:12.856Z,18.80
2023-01-05T12:15:53.464Z,26.30
2023-01-05T12:21:16.169Z,22.38
2023-01-05T12:26:28.290Z,15.60
2023-01-05T12:37:28.871Z,18.70
2023-01-05T12:42:51.771Z,16.38
2023-01-05T12:48:05.131Z,16.00
2023-01-05T12:53:22.051Z,14.55
2023-01-05T12:58:33.052Z,15.13
2023-01-05T13:03:44.602Z,22.13
2023-01-05T13:08:58.900Z,17.27
2023-01-05T13:14:05.588Z,19.23
2023-01-05T13:19:20.649Z,20.30
2023-01-05T13:24:39.593Z,18.92
2023-01-05T13:29:46.008Z,22.67
2023-01-05T13:34:53.765Z,23.13
2023-01-05T13:40:14.973Z,17.63
2023-01-05T13:45:33.117Z,17.63
2023-01-05T13:50:56.705Z,18.15
2023-01-05T13:56:02.220Z,20.83
2023-01-05T14:01:08.234Z,22.95
2023-01-05T14:06:29.817Z,22.85
2023-01-05T14:11:31.947Z,17.48
2023-01-05T14:16:37.561Z,20.42
2023-01-05T14:21:53.873Z,21.38
2023-01-05T14:27:05.761Z,20.80
2023-01-05T14:32:08.054Z,20.02
2023-01-05T14:37:23.669Z,20.75
2023-01-05T14:42:34.392Z,26.05
2023-01-05T14:48:03.402Z,19.13
2023-01-05T14:53:14.174Z,24.17
2023-01-05T14:58:35.935Z,20.67
2023-01-05T15:03:56.570Z,18.73
2023-01-05T15:09:36.242Z,25.42
2023-01-05T15:15:07.015Z,18.90
2023-01-05T15:20:14.658Z,23.50
2023-01-05T15:25:24.198Z,23.58
2023-01-05T15:30:31.847Z,17.98
2023-01-05T15:35:45.077Z,21.92
2023-01-05T15:40:48.334Z,22.98
2023-01-05T15:45:53.550Z,15.32
2023-01-05T15:50:58.488Z,25.92
2023-01-05T15:56:00.908Z,19.58
2023-01-05T16:01:12.799Z,27.77
2023-01-05T16:06:21.970Z,23.17
2023-01-05T16:11:32.064Z,20.70
2023-01-05T16:16:55.860Z,21.23
2023-01-05T16:22:08.336Z,21.97
2023-01-05T16:27:12.743Z,19.95
2023-01-05T16:32:34.391Z,24.08
2023-01-05T16:37:36.135Z,22.55
2023-01-05T16:42:48.013Z,26.10
2023-01-05T16:47:52.040Z,29.75
2023-01-05T16:53:04.400Z,26.60
2023-01-05T16:58:31.030Z,25.27
2023-01-05T17:03:32.969Z,25.58
2023-01-05T17:08:37.771Z,27.95
2023-01-05T17:13:45.209Z,29.20
2023-01-05T17:18:47.486Z,25.17
2023-01-05T17:23:52.388Z,24.05
2023-01-05T17:28:57.766Z,33.53
2023-01-05T17:33:59.523Z,25.60
2023-01-05T17:39:01.468Z,30.00
2023-01-05T17:44:03.179Z,27.85
2023-01-05T17:49:05.700Z,29.20
2023-01-05T17:54:07.378Z,25.70
2023-01-05T17:59:09.176Z,28.65
2023-01-05T18:04:10.808Z,27.08
2023-01-05T18:09:12.563Z,29.90
2023-01-05T18:14:14.282Z,28.52
2023-01-05T18:19:16.084Z,29.48
2023-01-05T18:24:17.772Z,24.42
2023-01-05T18:29:19.813Z,28.83
2023-01-05T18:34:21.748Z,26.85
2023-01-05T18:39:24.686Z,25.33
2023-01-05T18:44:26.356Z,24.90
2023-01-05T18:49:28.091Z,23.88
2023-01-05T18:54:30.136Z,16.70
2023-01-05T18:59:31.960Z,23.00
2023-01-05T19:04:33.652Z,23.10
2023-01-05T19:09:35.646Z,25.98
2023-01-05T19:14:37.636Z,25.42
2023-01-05T19:19:39.380Z,26.63
2023-01-05T19:24:41.021Z,30.70
2023-01-05T19:29:42.824Z,21.27
2023-01-05T19:34:44.598Z,21.48
2023-01-05T19:39:46.290Z,29.33
2023-01-05T19:44:47.984Z,23.70
2023-01-05T19:49:49.861Z,25.90
2023-01-05T19:54:51.736Z,28.50
2023-01-05T19:59:53.521Z,32.03
2023-01-05T20:04:55.260Z,23.85
2023-01-05T20:09:58.113Z,21.25
2023-01-05T20:14:59.847Z,28.10
2023-01-05T20:20:01.974Z,18.85
2023-01-05T20:25:05.137Z,22.52
2023-01-05T20:30:07.444Z,23.27
2023-01-05T20:35:11.938Z,25.73
2023-01-05T20:40:13.698Z,23.58
2023-01-05T20:45:16.067Z,26.05
2023-01-05T20:50:17.989Z,16.10
2023-01-05T20:55:19.609Z,20.38
2023-01-05T21:00:21.376Z,20.38
2023-01-05T21:05:23.048Z,17.55
2023-01-05T21:10:24.783Z,13.75
2023-01-05T21:15:27.629Z,13.73
2023-01-05T21:20:29.312Z,15.90
2023-01-05T21:25:31.228Z,15.45
2023-01-05T21:30:53.020Z,18.42
2023-01-05T21:35:56.061Z,14.27
2023-01-05T21:41:05.891Z,15.85
2023-01-05T21:46:10.042Z,15.38
2023-01-05T21:51:31.710Z,14.90
2023-01-05T21:56:38.334Z,15.48
2023-01-05T22:01:40.173Z,17.25
2023-01-05T22:06:41.906Z,10.00
2023-01-05T22:11:43.736Z,7.45
2023-01-05T22:16:45.419Z,8.23
2023-01-05T22:21:47.092Z,13.45
2023-01-05T22:26:48.806Z,15.55
2023-01-05T22:31:50.988Z,12.88
2023-01-05T22:36:53.402Z,11.77
2023-01-05T22:41:55.273Z,11.68
2023-01-05T22:46:57.164Z,18.30
2023-01-05T22:51:58.816Z,13.00
2023-01-05T22:57:00.461Z,15.32
2023-01-05T23:02:02.161Z,12.43
2023-01-05T23:07:04.375Z,9.07
2023-01-05T23:12:06.140Z,12.38
2023-01-05T23:17:12.137Z,11.73
2023-01-05T23:22:13.803Z,11.55
2023-01-05T23:27:15.471Z,10.98
2023-01-05T23:32:17.356Z,12.75
2023-01-05T23:37:19.041Z,13.43
2023-01-05T23:42:39.421Z,9.55
2023-01-05T23:47:41.137Z,12.32
2023-01-05T23:52:43.189Z,10.32
2023-01-05T23:57:44.864Z,13.65
